Time;durP1;ratioP1;P1;durP2;ratioP2;P2;SDS_P1;SDS_P2;PMS_P1;PMS_P2;Temp;Humidity;BMP_temperature;BMP_pressure;BME280_temperature;BME280_humidity;BME280_pressure;Samples;Min_cycle;Max_cycle;Signal;HPM_P1;HPM_P2
2024/01/14 00:02:05;;;;;;;;;56.33;47.33;;;;;8.97;42.49;101611.56;5036474;28;45324;-76
2024/01/14 00:04:30;;;;;;;;;62.67;53.00;;;;;9.00;42.48;101608.81;5036716;28;45563;-74
2024/01/14 00:06:56;;;;;;;;;63.33;49.00;;;;;9.09;42.14;101611.28;5041841;28;46325;-75
2024/01/14 00:09:21;;;;;;;;;72.00;53.00;;;;;9.10;42.37;101606.81;5043843;28;45398;-73
2024/01/14 00:11:46;;;;;;;;;67.67;54.00;;;;;9.04;42.08;101599.78;5031436;28;45285;-75
2024/01/14 00:14:12;;;;;;;;;62.00;50.00;;;;;9.05;42.31;101588.19;5025470;28;46374;-76
2024/01/14 00:16:37;;;;;;;;;66.33;48.00;;;;;8.92;42.52;101584.06;5036365;28;45626;-75
2024/01/14 00:19:05;;;;;;;;;60.33;46.67;;;;;9.05;41.80;101588.19;5036566;28;45259;-74
2024/01/14 00:21:33;;;;;;;;;70.33;51.00;;;;;9.08;41.87;101581.88;5036505;28;45360;-75
2024/01/14 00:23:59;;;;;;;;;66.33;49.00;;;;;9.12;41.72;101578.19;5036269;28;45289;-75
2024/01/14 00:26:27;;;;;;;;;66.33;49.67;;;;;9.15;42.18;101567.41;5036505;28;46188;-75
2024/01/14 00:28:57;;;;;;;;;63.00;49.67;;;;;9.20;42.06;101561.94;5036738;28;45492;-75
2024/01/14 05:32:31;;;;;;;;;56.33;46.00;;;;;9.01;41.89;101278.97;5038996;27;45386;-73
2024/01/14 05:34:57;;;;;;;;;61.67;44.00;;;;;9.04;41.45;101278.84;5036719;28;45567;-74
2024/01/14 05:37:23;;;;;;;;;64.33;49.67;;;;;9.10;41.45;101272.44;5035078;28;45577;-74
2024/01/14 05:39:48;;;;;;;;;67.67;49.00;;;;;9.12;41.33;101275.91;5034123;28;45363;-75
2024/01/14 05:42:13;;;;;;;;;73.33;51.00;;;;;9.08;41.44;101256.44;5031205;28;52757;-74
2024/01/14 05:44:39;;;;;;;;;59.33;48.33;;;;;9.17;41.16;101257.94;5034922;28;45745;-75
2024/01/14 05:47:04;;;;;;;;;65.33;48.67;;;;;9.05;41.25;101258.31;5034573;28;51769;-75
2024/01/14 05:49:29;;;;;;;;;52.33;46.67;;;;;9.06;41.23;101260.94;5017066;28;46208;-75
2024/01/14 05:51:55;;;;;;;;;51.00;39.67;;;;;9.02;41.52;101263.75;5034253;28;59697;-73
2024/01/14 05:54:20;;;;;;;;;68.67;51.33;;;;;9.01;41.32;101265.59;5034282;28;50634;-75
2024/01/14 05:56:45;;;;;;;;;55.67;45.00;;;;;8.92;41.05;101270.34;5016969;28;45361;-74
2024/01/14 05:59:11;;;;;;;;;60.67;44.33;;;;;8.82;41.79;101271.53;5034943;28;45390;-75
2024/01/14 06:01:37;;;;;;;;;63.00;47.00;;;;;8.90;41.84;101269.50;5033810;28;46789;-74
2024/01/14 06:04:02;;;;;;;;;66.67;44.67;;;;;8.98;42.06;101259.44;5034900;28;45346;-73
2024/01/14 06:06:27;;;;;;;;;59.00;44.67;;;;;9.03;41.83;101262.84;5033944;28;45478;-74
2024/01/14 06:08:52;;;;;;;;;50.33;44.67;;;;;9.11;41.58;101267.03;5034014;28;54133;-74
2024/01/14 06:11:18;;;;;;;;;63.33;46.00;;;;;9.07;41.27;101267.19;5029301;28;45950;-73
2024/01/14 06:13:44;;;;;;;;;68.00;42.67;;;;;9.11;41.28;101267.03;5033491;28;45367;-74
2024/01/14 06:16:09;;;;;;;;;57.33;47.67;;;;;9.18;41.50;101269.53;5033833;28;45493;-73
2024/01/14 06:18:35;;;;;;;;;47.67;44.00;;;;;9.13;41.13;101250.94;5034423;28;45545;-75
2024/01/14 06:21:01;;;;;;;;;57.00;44.33;;;;;9.19;41.36;101261.44;5034539;28;46182;-74
2024/01/14 06:23:28;;;;;;;;;65.33;49.00;;;;;9.34;41.14;101266.31;5034165;28;45332;-74
2024/01/14 06:25:53;;;;;;;;;57.00;46.00;;;;;9.42;40.67;101260.69;5034357;28;45360;-75
2024/01/14 06:28:19;;;;;;;;;61.67;47.33;;;;;9.43;40.98;101260.66;5037760;28;45375;-73
2024/01/14 06:30:44;;;;;;;;;56.67;43.33;;;;;9.39;40.87;101264.34;5047185;28;46369;-74
2024/01/14 06:33:09;;;;;;;;;61.33;46.00;;;;;9.27;40.45;101256.69;5033254;28;45364;-74
2024/01/14 06:35:36;;;;;;;;;60.33;47.33;;;;;9.17;41.13;101257.06;5034272;28;45408;-76
2024/01/14 06:38:02;;;;;;;;;66.33;49.33;;;;;9.01;41.53;101259.34;5033122;28;45414;-74
2024/01/14 06:40:27;;;;;;;;;56.00;46.67;;;;;9.16;41.26;101268.69;5029119;28;46412;-74
2024/01/14 06:42:52;;;;;;;;;64.00;48.67;;;;;9.14;41.32;101266.06;5034219;28;45412;-73
2024/01/14 06:45:18;;;;;;;;;48.33;44.00;;;;;9.16;41.02;101264.22;5033321;28;45429;-75
2024/01/14 06:47:44;;;;;;;;;52.67;46.00;;;;;9.09;41.05;101262.66;5033349;28;45469;-74
2024/01/14 06:50:10;;;;;;;;;51.67;45.67;;;;;9.03;41.62;101265.50;5033331;28;45551;-74
2024/01/14 06:52:35;;;;;;;;;71.33;47.67;;;;;9.08;41.87;101272.50;5032818;28;45370;-76
2024/01/14 06:55:02;;;;;;;;;46.33;42.00;;;;;9.06;41.00;101244.03;5031849;28;45961;-75
2024/01/14 06:57:29;;;;;;;;;53.67;45.33;;;;;9.24;40.73;101254.16;5032771;28;45556;-74
2024/01/14 06:59:55;;;;;;;;;62.00;49.00;;;;;9.25;40.88;101260.38;5033984;28;46415;-73
2024/01/14 07:02:20;;;;;;;;;58.00;44.00;;;;;9.18;41.32;101250.81;5034019;28;45368;-74
2024/01/14 07:04:46;;;;;;;;;56.33;45.00;;;;;9.08;41.43;101226.13;5033211;28;50753;-74
2024/01/14 07:07:11;;;;;;;;;63.00;46.33;;;;;9.05;41.27;101256.53;5033091;28;45497;-74
2024/01/14 07:09:36;;;;;;;;;67.00;47.00;;;;;8.86;41.73;101251.78;5033494;28;46126;-75
2024/01/14 07:12:03;;;;;;;;;59.67;47.67;;;;;8.82;41.59;101248.34;5028765;28;45471;-73
2024/01/14 07:14:28;;;;;;;;;65.67;50.00;;;;;8.89;42.03;101251.69;5033724;28;45481;-74
2024/01/14 07:16:54;;;;;;;;;63.67;52.00;;;;;8.84;42.13;101237.63;5016854;28;45427;-74
2024/01/14 07:19:19;;;;;;;;;52.67;43.00;;;;;8.78;41.81;101248.47;5037349;28;45409;-74
2024/01/14 07:21:44;;;;;;;;;55.67;46.33;;;;;8.82;41.98;101250.16;5037439;28;45324;-75
2024/01/14 07:24:10;;;;;;;;;53.33;44.00;;;;;8.75;42.02;101248.59;5037038;28;45372;-74
2024/01/14 07:26:35;;;;;;;;;63.67;50.67;;;;;8.79;41.83;101242.22;5037350;28;45419;-75
2024/01/14 07:29:00;;;;;;;;;48.00;43.67;;;;;8.90;41.93;101240.09;5019033;28;46050;-74
2024/01/14 07:31:27;;;;;;;;;52.67;42.67;;;;;9.01;41.81;101243.31;5045308;28;45359;-72
2024/01/14 07:33:53;;;;;;;;;63.00;48.00;;;;;9.04;41.04;101241.41;5018282;28;45326;-75
2024/01/14 07:36:18;;;;;;;;;64.00;47.00;;;;;9.00;41.00;101238.88;5035463;28;56681;-74
2024/01/14 07:38:44;;;;;;;;;60.67;46.67;;;;;8.97;41.87;101239.84;5036308;28;45545;-74
2024/01/14 07:41:15;;;;;;;;;61.67;48.00;;;;;9.07;41.44;101238.63;5040292;28;45429;-74
2024/01/14 07:43:41;;;;;;;;;57.33;45.00;;;;;9.03;41.60;101236.97;5042043;28;45410;-74
2024/01/14 07:46:07;;;;;;;;;65.67;47.00;;;;;8.92;41.31;101244.47;5036876;28;45486;-75
2024/01/14 07:48:33;;;;;;;;;54.00;43.67;;;;;8.90;41.64;101240.97;5036509;28;46384;-74
2024/01/14 07:50:59;;;;;;;;;67.33;49.33;;;;;8.95;41.25;101244.34;5036749;28;45273;-75
2024/01/14 07:53:24;;;;;;;;;48.67;42.00;;;;;8.91;41.44;101247.19;5036509;28;45362;-74
2024/01/14 07:55:50;;;;;;;;;67.33;54.00;;;;;8.79;41.73;101236.84;5036526;28;47371;-74
2024/01/14 07:58:15;;;;;;;;;63.00;49.00;;;;;8.87;41.37;101248.19;5018686;28;45353;-73
2024/01/14 08:00:41;;;;;;;;;55.00;44.67;;;;;8.93;41.38;101245.34;5036741;28;45321;-75
2024/01/14 08:03:06;;;;;;;;;64.33;46.33;;;;;8.93;41.68;101253.38;5036835;28;45254;-73
2024/01/14 08:05:32;;;;;;;;;63.33;47.67;;;;;8.85;41.34;101244.69;5039048;28;45244;-72
2024/01/14 08:07:57;;;;;;;;;66.67;49.00;;;;;8.91;41.53;101257.88;5037608;28;45411;-74
2024/01/14 08:10:22;;;;;;;;;61.33;46.67;;;;;8.81;41.57;101259.09;5036429;28;45505;-76
2024/01/14 08:12:48;;;;;;;;;64.67;48.67;;;;;8.71;41.96;101263.81;5014260;28;52764;-76
2024/01/14 08:15:14;;;;;;;;;57.67;46.33;;;;;8.45;41.89;101237.88;5019127;28;45390;-78
2024/01/14 08:17:39;;;;;;;;;57.33;46.00;;;;;8.46;42.41;101254.78;5036230;28;45946;-75
2024/01/14 08:20:05;;;;;;;;;60.33;44.67;;;;;8.38;42.79;101255.00;5036614;28;45347;-76
2024/01/14 08:22:31;;;;;;;;;51.33;44.67;;;;;8.20;42.76;101259.03;5035863;28;45413;-77
2024/01/14 08:24:56;;;;;;;;;61.00;47.33;;;;;8.22;42.98;101246.53;5036668;28;45501;-81
2024/01/14 08:27:22;;;;;;;;;65.67;46.00;;;;;7.90;43.31;101244.75;5036986;28;45520;-81
2024/01/14 08:29:47;;;;;;;;;54.00;47.67;;;;;7.98;43.41;101269.44;5038912;28;45386;-77
2024/01/14 08:32:12;;;;;;;;;64.67;44.67;;;;;7.90;43.76;101260.75;5041573;28;45475;-75
2024/01/14 08:34:38;;;;;;;;;58.67;44.00;;;;;7.78;43.95;101253.06;5035540;28;59339;-74
2024/01/14 08:37:03;;;;;;;;;59.00;46.33;;;;;7.65;44.07;101232.09;5035863;28;46153;-74
2024/01/14 08:39:29;;;;;;;;;64.00;47.67;;;;;7.86;43.65;101247.53;5036300;28;45263;-73
2024/01/14 08:41:54;;;;;;;;;54.67;47.33;;;;;7.94;43.24;101246.41;5031621;28;45355;-74
2024/01/14 08:44:20;;;;;;;;;60.67;48.67;;;;;7.91;43.68;101251.81;5035992;28;45240;-73
2024/01/14 08:46:47;;;;;;;;;41.67;35.67;;;;;7.98;43.66;101258.75;5036047;28;45333;-74
2024/01/14 08:49:13;;;;;;;;;59.33;49.00;;;;;8.01;43.31;101247.09;5036396;28;45532;-73
2024/01/14 08:51:40;;;;;;;;;60.67;47.33;;;;;8.06;43.62;101250.53;5036517;28;45428;-72
2024/01/14 08:54:05;;;;;;;;;56.00;45.33;;;;;8.10;43.45;101236.16;5017753;28;46399;-75
2024/01/14 08:56:31;;;;;;;;;61.00;47.67;;;;;8.11;43.66;101234.38;5016903;28;46157;-75
2024/01/14 08:58:57;;;;;;;;;57.33;47.33;;;;;8.19;43.29;101232.38;5035223;28;50070;-77
2024/01/14 09:01:23;;;;;;;;;66.67;50.67;;;;;8.32;42.86;101233.81;5035890;28;45504;-74
2024/01/14 09:03:49;;;;;;;;;59.33;47.00;;;;;8.40;42.66;101239.81;5035218;28;45535;-74
2024/01/14 09:06:15;;;;;;;;;67.67;42.33;;;;;8.48;42.36;101234.25;5035550;28;45556;-73
2024/01/14 09:08:40;;;;;;;;;67.67;50.00;;;;;8.43;42.33;101217.44;5035003;28;45272;-76
2024/01/14 09:11:07;;;;;;;;;66.33;47.33;;;;;8.31;42.76;101227.59;5024948;28;45562;-74
2024/01/14 09:13:32;;;;;;;;;70.00;51.00;;;;;8.40;42.72;101220.22;5031494;28;45604;-74
2024/01/14 09:15:57;;;;;;;;;68.00;50.67;;;;;8.18;43.21;101210.13;5032313;28;46322;-75
2024/01/14 09:18:23;;;;;;;;;69.00;54.67;;;;;8.26;43.02;101212.56;5034395;28;45715;-75
2024/01/14 09:20:49;;;;;;;;;68.00;50.00;;;;;8.50;42.68;101211.91;5048290;28;55123;-75
2024/01/14 09:23:15;;;;;;;;;66.00;51.33;;;;;8.43;42.26;101199.63;5035260;28;45334;-76
2024/01/14 09:25:40;;;;;;;;;60.00;45.67;;;;;8.54;42.36;101205.53;5035560;28;45846;-74
2024/01/14 09:28:06;;;;;;;;;58.00;45.00;;;;;8.32;42.56;101191.06;5035953;28;45489;-76
2024/01/14 09:30:31;;;;;;;;;62.33;46.33;;;;;8.50;42.38;101203.91;5044280;28;45327;-75
2024/01/14 09:32:57;;;;;;;;;63.00;51.33;;;;;8.60;42.13;101194.66;5035758;28;45323;-75
2024/01/14 09:35:23;;;;;;;;;64.67;48.33;;;;;8.49;42.61;101211.94;5035607;28;46264;-76
2024/01/14 09:37:48;;;;;;;;;67.33;51.67;;;;;8.44;42.16;101185.34;5035327;28;54389;-77
2024/01/14 09:40:16;;;;;;;;;59.67;46.33;;;;;8.50;42.30;101198.56;5031637;28;45401;-75
2024/01/14 09:42:44;;;;;;;;;61.33;48.67;;;;;8.56;42.25;101203.69;5017237;28;45301;-76
2024/01/14 09:45:10;;;;;;;;;63.33;51.00;;;;;8.45;42.31;101199.59;5034913;28;45371;-75
2024/01/14 09:47:36;;;;;;;;;71.33;53.00;;;;;8.57;42.31;101204.56;5035034;28;45529;-76
2024/01/14 09:50:02;;;;;;;;;52.33;41.33;;;;;8.54;42.47;101185.94;5016954;28;45523;-76
2024/01/14 09:52:30;;;;;;;;;53.33;43.00;;;;;8.50;42.71;101198.56;5046976;28;46220;-74
2024/01/14 09:54:56;;;;;;;;;60.33;45.33;;;;;8.54;41.98;101196.66;5034853;28;46143;-74
2024/01/14 09:57:21;;;;;;;;;70.00;53.33;;;;;8.54;42.29;101184.16;5035224;28;45369;-76
2024/01/14 09:59:50;;;;;;;;;67.67;51.33;;;;;8.43;42.39;101193.41;5035165;28;45411;-75
2024/01/14 10:02:15;;;;;;;;;75.67;52.00;;;;;8.34;42.50;101205.25;5035036;28;45343;-77
2024/01/14 10:04:41;;;;;;;;;56.33;44.67;;;;;8.41;42.79;101196.16;5034625;28;45502;-74
2024/01/14 10:07:07;;;;;;;;;71.67;51.67;;;;;8.60;42.60;101204.47;5034913;28;45318;-75
2024/01/14 10:09:33;;;;;;;;;49.00;41.00;;;;;8.56;42.28;101201.03;5035166;28;45539;-75
2024/01/14 10:11:59;;;;;;;;;64.33;51.00;;;;;8.59;42.25;101184.03;5029048;28;45336;-75
2024/01/14 10:14:28;;;;;;;;;72.67;50.67;;;;;8.49;41.92;101202.13;5034149;28;46337;-75
2024/01/14 10:17:00;;;;;;;;;52.00;43.00;;;;;8.32;42.31;101180.41;5016754;28;45412;-75
2024/01/14 10:19:25;;;;;;;;;62.33;47.00;;;;;8.29;42.32;101177.78;5035042;28;45189;-75
2024/01/14 10:21:53;;;;;;;;;72.00;50.67;;;;;8.26;42.38;101178.72;5034753;28;45177;-77
2024/01/14 10:24:18;;;;;;;;;75.33;55.33;;;;;8.35;42.34;101185.63;5033951;28;46177;-76
2024/01/14 10:26:43;;;;;;;;;78.67;47.00;;;;;8.51;42.11;101180.69;5034553;28;45322;-75
2024/01/14 10:29:09;;;;;;;;;56.00;45.00;;;;;8.17;41.97;101141.59;5034879;28;45817;-76
2024/01/14 10:31:35;;;;;;;;;51.33;42.00;;;;;8.30;42.61;101175.06;5043866;28;45450;-76
2024/01/14 10:34:02;;;;;;;;;64.67;47.33;;;;;8.42;42.39;101179.16;5034541;28;45515;-77
2024/01/14 10:36:31;;;;;;;;;70.67;51.67;;;;;8.36;41.97;101171.34;5034866;28;45476;-77
2024/01/14 10:38:59;;;;;;;;;74.67;51.67;;;;;8.60;42.14;101178.63;5035496;28;45253;-74
2024/01/14 10:41:25;;;;;;;;;63.67;47.33;;;;;8.37;42.25;101172.22;5029593;28;45573;-73
2024/01/14 10:43:51;;;;;;;;;77.00;51.67;;;;;8.14;42.76;101170.22;5034082;28;46335;-74
2024/01/14 10:46:16;;;;;;;;;75.00;51.33;;;;;8.32;42.50;101165.25;5034262;28;45458;-77
2024/01/14 10:48:48;;;;;;;;;62.67;48.67;;;;;8.55;41.97;101164.53;5034375;28;45577;-73
2024/01/14 10:51:16;;;;;;;;;65.00;53.00;;;;;8.43;41.69;101143.53;5033623;28;45405;-71
2024/01/14 10:53:53;;;;;;;;;69.33;52.00;;;;;8.12;42.58;101146.22;5033533;28;45429;-71
2024/01/14 10:56:30;;;;;;;;;60.33;48.33;;;;;7.86;43.19;101151.44;5034159;28;45382;-73
2024/01/14 10:58:59;;;;;;;;;55.33;47.00;;;;;8.05;42.72;101141.97;5034333;28;45233;-72
2024/01/14 11:01:26;;;;;;;;;62.00;46.33;;;;;8.05;42.35;101133.97;5015836;28;45479;-73
2024/01/14 11:03:52;;;;;;;;;73.33;49.67;;;;;8.26;42.33;101135.09;5034216;28;45427;-75
2024/01/14 11:06:20;;;;;;;;;55.33;45.33;;;;;8.24;42.52;101139.66;5033861;28;45425;-74
2024/01/14 11:08:51;;;;;;;;;59.33;47.00;;;;;8.19;41.84;101113.06;5034030;28;45452;-79
2024/01/14 11:11:24;;;;;;;;;40.00;30.67;;;;;8.09;41.98;101106.25;5010392;28;45456;-71
2024/01/14 11:14:05;;;;;;;;;66.00;47.00;;;;;7.80;42.88;101083.09;5035381;28;45493;-71
2024/01/14 11:16:51;;;;;;;;;67.67;51.00;;;;;7.81;42.86;101091.97;5033567;28;45447;-72
2024/01/14 11:19:21;;;;;;;;;66.33;49.67;;;;;7.86;42.93;101093.59;5033951;28;45347;-72
2024/01/14 11:22:08;;;;;;;;;61.00;47.00;;;;;7.80;42.96;101075.09;5033681;28;45415;-73
2024/01/14 11:24:34;;;;;;;;;58.00;47.67;;;;;7.81;42.88;101086.63;5033501;28;45753;-74
2024/01/14 11:26:59;;;;;;;;;64.67;50.33;;;;;8.15;42.58;101092.72;5033994;28;45292;-74
2024/01/14 11:29:39;;;;;;;;;70.67;49.67;;;;;8.19;42.50;101089.03;5033952;28;45627;-73
2024/01/14 11:32:08;;;;;;;;;68.00;48.33;;;;;8.05;42.22;101096.59;5040490;28;45600;-74
2024/01/14 11:34:45;;;;;;;;;65.67;48.67;;;;;8.05;42.49;101077.91;5033824;28;45420;-75
2024/01/14 11:37:43;;;;;;;;;65.67;51.33;;;;;8.12;42.07;101057.22;5033407;28;45514;-75
2024/01/14 11:40:26;;;;;;;;;66.67;51.33;;;;;8.33;41.88;101069.94;5030195;28;45387;-78
2024/01/14 11:43:01;;;;;;;;;67.00;48.33;;;;;8.40;41.55;101066.16;5022422;28;45470;-79
2024/01/14 11:45:26;;;;;;;;;60.00;47.67;;;;;8.48;41.84;101058.78;5033467;28;46987;-76
2024/01/14 11:47:53;;;;;;;;;71.33;55.00;;;;;8.50;41.58;101056.94;5033776;28;45500;-75
2024/01/14 11:50:20;;;;;;;;;61.67;46.33;;;;;8.44;41.46;101045.53;5033903;28;45402;-76
2024/01/14 11:52:49;;;;;;;;;61.00;45.67;;;;;8.78;40.74;101042.63;5033291;28;45439;-76
2024/01/14 11:55:19;;;;;;;;;60.00;45.67;;;;;8.88;40.91;101028.03;5033106;28;46402;-76
2024/01/14 11:57:45;;;;;;;;;66.00;50.00;;;;;9.10;40.67;101034.41;5033492;28;45414;-75
2024/01/14 12:00:12;;;;;;;;;71.67;51.67;;;;;9.05;40.68;101031.00;5033578;28;45383;-74
2024/01/14 12:02:37;;;;;;;;;64.00;46.33;;;;;9.11;40.45;101017.41;5033342;28;45465;-78
2024/01/14 12:05:16;;;;;;;;;64.67;46.33;;;;;9.28;39.94;101028.38;5035644;28;46324;-75
2024/01/14 12:07:42;;;;;;;;;66.00;50.00;;;;;9.25;39.57;101017.81;5036291;28;45316;-74
2024/01/14 12:10:12;;;;;;;;;50.33;35.00;;;;;9.01;40.45;101007.97;5019167;28;45645;-75
2024/01/14 12:12:37;;;;;;;;;60.33;48.33;;;;;9.14;40.40;101006.59;5031559;28;45382;-75
2024/01/14 12:15:03;;;;;;;;;64.00;46.67;;;;;9.14;40.03;100997.69;5036458;28;46323;-75
2024/01/14 12:17:29;;;;;;;;;59.67;43.00;;;;;9.21;39.86;100988.53;5036450;28;45422;-76
2024/01/14 12:20:04;;;;;;;;;56.00;41.33;;;;;9.52;39.76;100988.28;5036672;28;45775;-74
2024/01/14 12:22:30;;;;;;;;;52.33;44.00;;;;;9.60;39.43;100959.41;5035917;28;45967;-78
2024/01/14 12:24:55;;;;;;;;;62.00;47.67;;;;;9.80;39.02;100962.19;5036489;28;46148;-77
2024/01/14 12:27:21;;;;;;;;;50.33;41.67;;;;;10.05;39.20;100970.09;5035877;28;45351;-74
2024/01/14 12:29:47;;;;;;;;;56.33;42.00;;;;;10.20;38.67;100958.84;5039594;28;45386;-74
2024/01/14 12:32:12;;;;;;;;;61.67;45.33;;;;;10.41;38.39;100960.59;5041645;28;45520;-74
2024/01/14 12:34:41;;;;;;;;;56.00;43.67;;;;;10.61;38.09;100973.19;5036268;28;49311;-75
2024/01/14 12:37:06;;;;;;;;;51.00;44.33;;;;;10.53;38.17;100967.28;5035669;28;45371;-76
2024/01/14 12:39:33;;;;;;;;;59.67;41.00;;;;;10.29;38.40;100955.78;5037761;28;45335;-78
2024/01/14 12:42:00;;;;;;;;;61.33;49.00;;;;;10.34;38.78;100950.22;5033473;28;45378;-75
2024/01/14 12:44:26;;;;;;;;;58.00;44.33;;;;;10.33;38.23;100946.66;5039766;28;46169;-78
2024/01/14 12:47:02;;;;;;;;;45.67;42.33;;;;;10.11;38.84;100943.97;5039065;28;45284;-78
2024/01/14 12:49:28;;;;;;;;;58.33;45.67;;;;;10.24;38.70;100947.91;5038103;28;45555;-79
2024/01/14 12:51:59;;;;;;;;;40.67;28.67;;;;;10.36;38.69;100933.16;5036798;28;45364;-79
2024/01/14 12:54:25;;;;;;;;;61.33;47.33;;;;;10.43;38.95;100937.31;5036640;28;45529;-78
2024/01/14 12:56:58;;;;;;;;;58.33;47.00;;;;;10.29;38.78;100912.03;5037848;28;45420;-78
2024/01/14 12:59:23;;;;;;;;;58.00;41.00;;;;;10.20;39.04;100871.28;5037454;28;45474;-79
2024/01/14 13:01:48;;;;;;;;;60.00;47.67;;;;;10.35;38.62;100912.63;5042806;28;45326;-81
2024/01/14 13:04:14;;;;;;;;;67.00;48.33;;;;;10.41;38.38;100890.94;5036185;28;46313;-78
2024/01/14 13:06:39;;;;;;;;;54.67;43.67;;;;;10.59;38.45;100900.84;5029633;28;45613;-79
2024/01/14 13:09:05;;;;;;;;;54.00;43.00;;;;;10.57;38.47;100902.72;5035701;28;45213;-72
2024/01/14 13:11:30;;;;;;;;;53.33;44.33;;;;;10.33;38.95;100894.88;5031074;28;45454;-77
2024/01/14 13:13:57;;;;;;;;;50.33;41.33;;;;;10.42;38.74;100898.03;5042944;28;45382;-72
2024/01/14 13:16:23;;;;;;;;;67.00;45.00;;;;;10.43;38.89;100885.50;5019887;28;46337;-74
2024/01/14 13:18:48;;;;;;;;;63.00;47.67;;;;;10.57;38.73;100891.13;5041385;28;45457;-75
2024/01/14 13:21:13;;;;;;;;;62.67;47.33;;;;;10.55;38.60;100891.19;5034576;28;52631;-71
2024/01/14 13:23:38;;;;;;;;;52.33;40.67;;;;;10.40;38.52;100869.53;5044721;28;55660;-72
2024/01/14 13:26:04;;;;;;;;;57.67;46.67;;;;;10.37;38.49;100870.56;5037622;28;58576;-76
2024/01/14 13:28:29;;;;;;;;;56.00;45.00;;;;;10.31;38.78;100875.31;5039681;28;45945;-73
2024/01/14 13:30:55;;;;;;;;;65.33;45.67;;;;;10.12;39.49;100875.19;5045972;28;45514;-76
2024/01/14 13:33:20;;;;;;;;;49.00;42.67;;;;;10.27;39.47;100868.34;5043225;28;46098;-71
2024/01/14 13:35:46;;;;;;;;;55.67;44.33;;;;;10.47;38.84;100876.38;5035050;28;45319;-71
2024/01/14 13:38:11;;;;;;;;;58.67;44.33;;;;;10.41;38.74;100855.22;5034924;28;45460;-73
2024/01/14 13:40:36;;;;;;;;;60.33;43.33;;;;;10.39;39.41;100849.03;5030214;28;45492;-73
2024/01/14 13:43:03;;;;;;;;;51.67;43.67;;;;;10.43;38.69;100848.84;5035034;28;45292;-79
2024/01/14 13:45:30;;;;;;;;;60.00;44.33;;;;;10.58;39.44;100848.19;5017149;28;45412;-74
2024/01/14 13:47:57;;;;;;;;;60.33;47.33;;;;;10.58;39.80;100860.72;5035298;28;45450;-77
2024/01/14 13:50:22;;;;;;;;;55.67;44.67;;;;;10.62;39.22;100851.59;5034919;28;45566;-77
2024/01/14 13:52:48;;;;;;;;;49.00;44.67;;;;;10.76;38.72;100846.50;5034540;28;56406;-75
2024/01/14 13:55:13;;;;;;;;;57.67;47.67;;;;;10.66;38.56;100820.16;5034620;28;45334;-73
2024/01/14 13:57:38;;;;;;;;;59.67;40.33;;;;;10.42;39.08;100838.19;5035259;28;45264;-72
2024/01/14 14:00:05;;;;;;;;;62.33;44.33;;;;;10.33;39.29;100843.94;5034617;28;48349;-74
2024/01/14 14:02:31;;;;;;;;;56.00;42.67;;;;;10.23;39.88;100849.72;5034482;28;46608;-73
2024/01/14 14:04:57;;;;;;;;;67.00;48.00;;;;;10.04;39.97;100839.78;5034900;28;45306;-75
2024/01/14 14:07:23;;;;;;;;;58.67;42.67;;;;;9.96;39.82;100850.84;5035953;28;45635;-76
2024/01/14 14:09:49;;;;;;;;;62.00;48.00;;;;;10.10;40.19;100842.25;5034533;28;45327;-76
2024/01/14 14:12:15;;;;;;;;;62.00;46.33;;;;;10.19;39.71;100848.13;5029292;28;46238;-77
2024/01/14 14:14:41;;;;;;;;;62.00;47.67;;;;;10.29;39.68;100837.88;5034984;28;45932;-78
2024/01/14 14:17:06;;;;;;;;;54.00;43.00;;;;;10.32;39.42;100827.00;5035035;28;45335;-73
2024/01/14 14:19:32;;;;;;;;;58.67;43.67;;;;;10.28;40.05;100837.94;5034759;28;45692;-73
2024/01/14 14:21:58;;;;;;;;;61.00;44.67;;;;;9.96;40.07;100841.91;5034401;28;45966;-77
2024/01/14 14:24:25;;;;;;;;;54.00;40.00;;;;;9.89;40.53;100827.94;5034892;28;45337;-79
2024/01/14 14:26:50;;;;;;;;;43.67;40.67;;;;;9.90;40.73;100847.53;5034901;28;45390;-77
2024/01/14 14:29:17;;;;;;;;;63.67;49.67;;;;;9.73;40.70;100850.91;5034219;28;46142;-75
2024/01/14 14:31:45;;;;;;;;;52.00;43.00;;;;;9.84;41.12;100854.03;5043817;28;46212;-72
2024/01/14 14:34:10;;;;;;;;;54.33;43.33;;;;;9.97;40.48;100857.94;5035284;28;54630;-77
2024/01/14 14:36:36;;;;;;;;;59.67;44.33;;;;;9.93;40.66;100845.63;5036246;28;45515;-77
2024/01/14 14:39:03;;;;;;;;;47.00;41.67;;;;;9.68;41.56;100848.44;5043179;28;45510;-78
2024/01/14 14:41:28;;;;;;;;;53.33;44.67;;;;;9.70;41.83;100843.00;5042580;28;46090;-79
2024/01/14 14:43:53;;;;;;;;;51.33;38.33;;;;;9.78;41.52;100832.88;5034995;28;45364;-78
2024/01/14 14:46:19;;;;;;;;;38.67;36.67;;;;;9.83;41.32;100828.19;5037621;28;45367;-80
2024/01/14 14:48:44;;;;;;;;;53.67;41.00;;;;;9.63;41.43;100763.88;5017131;28;46330;-84
2024/01/14 14:51:10;;;;;;;;;58.33;43.67;;;;;9.73;41.13;100795.56;5016793;28;47109;-77
2024/01/14 14:53:35;;;;;;;;;44.00;40.67;;;;;9.71;41.20;100815.28;5033817;28;45469;-74
2024/01/14 14:56:00;;;;;;;;;48.00;42.67;;;;;9.75;41.69;100815.13;5034840;28;45362;-81
2024/01/14 14:58:25;;;;;;;;;56.33;43.00;;;;;9.86;41.41;100812.88;5016382;28;46168;-77
2024/01/14 15:00:51;;;;;;;;;48.00;38.00;;;;;9.68;41.50;100794.91;5016319;28;48564;-76
2024/01/14 15:03:16;;;;;;;;;52.00;40.00;;;;;9.69;41.13;100788.63;5015646;28;45685;-83
2024/01/14 15:05:42;;;;;;;;;42.00;37.00;;;;;9.69;41.40;100790.41;5034576;28;45511;-74
2024/01/14 15:08:07;;;;;;;;;49.67;39.33;;;;;9.68;41.16;100797.56;5033728;28;45568;-78
2024/01/14 15:10:32;;;;;;;;;53.00;45.00;;;;;9.69;41.50;100777.03;5033905;28;46161;-80
2024/01/14 15:12:58;;;;;;;;;60.33;44.67;;;;;9.67;41.21;100782.44;5030472;28;45399;-76
2024/01/14 15:15:24;;;;;;;;;52.67;42.33;;;;;9.59;41.73;100776.53;5034461;28;45439;-73
2024/01/14 15:17:50;;;;;;;;;46.33;39.00;;;;;9.57;41.35;100786.44;5033500;28;45388;-77
2024/01/14 15:20:15;;;;;;;;;57.00;45.67;;;;;9.59;41.90;100783.69;5034015;28;45336;-80
2024/01/14 15:22:41;;;;;;;;;49.67;41.33;;;;;9.64;41.37;100779.00;5033281;28;45625;-75
2024/01/14 15:25:06;;;;;;;;;58.67;44.00;;;;;9.62;42.03;100768.38;5033962;28;45457;-72
2024/01/14 15:27:35;;;;;;;;;51.67;41.33;;;;;9.70;41.72;100763.56;5036584;28;45209;-78
2024/01/14 15:30:01;;;;;;;;;49.67;42.00;;;;;9.74;41.34;100775.03;5050858;28;46374;-76
2024/01/14 15:32:26;;;;;;;;;41.67;37.67;;;;;9.70;41.55;100781.44;5035850;28;57166;-77
2024/01/14 15:34:51;;;;;;;;;52.00;44.00;;;;;9.78;41.76;100790.03;5034187;28;45481;-73
2024/01/14 15:37:17;;;;;;;;;51.33;41.33;;;;;9.60;41.90;100761.34;5033576;28;46035;-77
2024/01/14 15:39:42;;;;;;;;;63.00;45.00;;;;;9.19;42.22;100734.47;5018871;28;47317;-74
2024/01/14 15:42:07;;;;;;;;;41.67;30.00;;;;;9.60;42.05;100767.59;5031900;28;45379;-81
2024/01/14 15:44:33;;;;;;;;;49.67;40.33;;;;;9.60;41.75;100754.19;5018812;28;45492;-76
2024/01/14 15:46:59;;;;;;;;;44.67;42.00;;;;;9.73;41.33;100770.59;5037444;28;45784;-79
2024/01/14 15:49:25;;;;;;;;;45.00;39.33;;;;;9.76;41.59;100778.50;5035582;28;46393;-79
2024/01/14 15:51:50;;;;;;;;;46.67;39.00;;;;;9.80;41.95;100778.31;5017674;28;45960;-77
2024/01/14 15:54:17;;;;;;;;;56.33;45.33;;;;;9.51;42.29;100775.13;5019643;28;45477;-78
2024/01/14 15:56:42;;;;;;;;;55.33;43.67;;;;;9.42;42.26;100763.84;5022183;28;46109;-77
2024/01/14 15:59:08;;;;;;;;;49.00;42.00;;;;;9.48;42.08;100752.88;5048873;28;46161;-77
2024/01/14 16:01:40;;;;;;;;;45.00;38.33;;;;;9.34;42.20;100739.22;5036992;28;45287;-82
2024/01/14 16:04:05;;;;;;;;;52.33;38.00;;;;;9.13;42.91;100763.25;5037041;28;45441;-77
2024/01/14 16:06:31;;;;;;;;;43.33;40.67;;;;;9.15;42.68;100746.22;5036192;28;45549;-79
2024/01/14 16:08:56;;;;;;;;;44.00;33.33;;;;;9.25;42.72;100784.19;5036941;28;46066;-76
2024/01/14 16:11:21;;;;;;;;;26.00;24.00;;;;;8.91;43.83;100774.81;5032014;28;45493;-77
2024/01/14 16:13:47;;;;;;;;;44.67;36.00;;;;;9.01;43.10;100759.28;5037462;28;45545;-81
2024/01/14 16:16:12;;;;;;;;;42.33;39.67;;;;;9.13;43.04;100756.13;5037883;28;44864;-80